createdAt,value
2022-10-11T00:03:52.613Z,7.20
2022-10-11T00:08:52.181Z,4.28
2022-10-11T00:13:50.417Z,5.65
2022-10-11T00:18:48.696Z,7.60
2022-10-11T00:23:46.880Z,6.68
2022-10-11T00:28:46.614Z,5.80
2022-10-11T00:33:44.936Z,8.10
2022-10-11T00:38:43.101Z,4.78
2022-10-11T00:43:41.428Z,4.57
2022-10-11T00:48:42.396Z,4.78
2022-10-11T00:53:40.847Z,4.25
2022-10-11T00:58:39.666Z,6.72
2022-10-11T01:03:39.125Z,4.13
2022-10-11T01:08:39.691Z,8.15
2022-10-11T01:13:43.142Z,5.78
2022-10-11T01:18:45.162Z,2.50
2022-10-11T01:24:08.573Z,4.32
2022-10-11T01:29:11.963Z,4.60
2022-10-11T01:34:14.837Z,4.13
2022-10-11T01:39:14.284Z,4.72
2022-10-11T01:44:14.521Z,3.97
2022-10-11T01:49:14.227Z,3.67
2022-10-11T01:54:17.359Z,5.70
2022-10-11T01:59:29.320Z,4.95
2022-10-11T02:04:32.170Z,3.33
2022-10-11T02:09:34.772Z,4.65
2022-10-11T02:14:35.292Z,5.22
2022-10-11T02:19:37.180Z,4.28
2022-10-11T02:24:37.514Z,4.15
2022-10-11T02:29:38.977Z,3.90
2022-10-11T02:34:39.333Z,3.28
2022-10-11T02:39:40.995Z,7.40
2022-10-11T02:44:44.188Z,7.35
2022-10-11T02:49:43.937Z,3.58
2022-10-11T02:54:55.274Z,5.05
2022-10-11T02:59:53.456Z,6.30
2022-10-11T03:04:53.044Z,4.10
2022-10-11T03:09:51.317Z,7.60
2022-10-11T03:14:49.637Z,6.35
2022-10-11T03:19:47.934Z,5.93
2022-10-11T03:24:47.556Z,5.65
2022-10-11T03:29:45.875Z,3.88
2022-10-11T03:34:44.161Z,6.93
2022-10-11T03:39:43.124Z,5.47
2022-10-11T03:44:42.784Z,6.25
2022-10-11T03:49:43.563Z,6.28
2022-10-11T03:54:42.077Z,6.00
2022-10-11T03:59:40.344Z,6.47
2022-10-11T04:04:39.909Z,7.35
2022-10-11T04:09:39.041Z,7.72
2022-10-11T04:14:37.220Z,7.70
2022-10-11T04:19:36.850Z,9.10
2022-10-11T04:24:36.609Z,11.35
2022-10-11T04:29:35.013Z,10.45
2022-10-11T04:34:33.177Z,15.85
2022-10-11T04:39:31.385Z,17.30
2022-10-11T04:44:31.224Z,13.38
2022-10-11T04:49:29.443Z,11.98
2022-10-11T04:54:27.805Z,8.40
2022-10-11T04:59:26.056Z,11.95
2022-10-11T05:04:25.628Z,10.32
2022-10-11T05:09:23.840Z,10.88
2022-10-11T05:14:22.029Z,9.10
2022-10-11T05:19:22.674Z,13.13
2022-10-11T05:24:22.277Z,12.18
2022-10-11T05:29:20.488Z,9.55
2022-10-11T05:34:22.010Z,6.68
2022-10-11T05:39:22.964Z,7.78
2022-10-11T05:44:32.909Z,9.02
2022-10-11T05:49:31.152Z,6.90
2022-10-11T05:54:30.363Z,8.27
2022-10-11T05:59:30.116Z,9.23
2022-10-11T06:04:28.341Z,10.52
2022-10-11T06:09:26.480Z,11.77
2022-10-11T06:14:24.773Z,8.80
2022-10-11T06:19:24.472Z,13.43
2022-10-11T06:24:22.781Z,18.48
2022-10-11T06:29:21.309Z,19.52
2022-10-11T06:34:19.582Z,16.40
2022-10-11T06:39:20.236Z,15.20
2022-10-11T06:44:18.663Z,9.88
2022-10-11T06:49:22.208Z,11.23
2022-10-11T06:54:22.713Z,13.55
2022-10-11T06:59:21.103Z,11.80
2022-10-11T07:04:19.371Z,12.82
2022-10-11T07:09:17.601Z,10.65
2022-10-11T07:14:17.095Z,10.30
2022-10-11T07:19:15.244Z,8.20
2022-10-11T07:24:13.394Z,9.15
2022-10-11T07:29:11.939Z,11.10
2022-10-11T07:34:12.014Z,8.48
2022-10-11T07:39:10.501Z,11.23
2022-10-11T07:44:08.658Z,13.88
2022-10-11T07:49:06.894Z,11.25
2022-10-11T07:54:07.524Z,13.20
2022-10-11T07:59:06.411Z,11.73
2022-10-11T08:04:04.688Z,10.07
2022-10-11T08:09:03.133Z,9.65
2022-10-11T08:14:04.525Z,8.68
2022-10-11T08:19:03.418Z,15.75
2022-10-11T08:24:03.014Z,15.85
2022-10-11T08:29:04.058Z,7.38
2022-10-11T08:34:02.843Z,13.52
2022-10-11T08:39:01.891Z,12.55
2022-10-11T08:44:09.444Z,6.82
2022-10-11T08:49:09.777Z,14.38
2022-10-11T08:54:13.546Z,18.13
2022-10-11T08:59:19.387Z,19.97
2022-10-11T09:04:19.089Z,15.13
2022-10-11T09:09:30.974Z,12.98
2022-10-11T09:14:39.410Z,13.73
2022-10-11T09:19:52.213Z,12.55
2022-10-11T09:24:56.481Z,11.70
2022-10-11T09:29:59.687Z,12.38
2022-10-11T09:35:01.052Z,16.77
2022-10-11T09:40:03.399Z,12.68
2022-10-11T09:45:13.127Z,12.50
2022-10-11T09:50:16.297Z,11.60
2022-10-11T09:55:32.131Z,20.23
2022-10-11T10:00:33.688Z,12.85
2022-10-11T10:05:35.035Z,15.55
2022-10-11T10:10:35.685Z,10.45
2022-10-11T10:15:42.301Z,11.30
2022-10-11T10:20:40.574Z,12.63
2022-10-11T10:25:43.483Z,14.70
2022-10-11T10:30:50.937Z,13.35
2022-10-11T10:35:52.692Z,16.98
2022-10-11T10:40:52.699Z,10.15
2022-10-11T10:46:05.751Z,10.88
2022-10-11T10:51:10.558Z,12.88
2022-10-11T10:56:11.478Z,12.60
2022-10-11T11:01:14.481Z,12.10
2022-10-11T11:06:17.974Z,12.40
2022-10-11T11:11:24.683Z,12.77
2022-10-11T11:16:27.529Z,18.52
2022-10-11T11:21:31.976Z,12.43
2022-10-11T11:31:37.733Z,13.55
2022-10-11T11:36:38.368Z,7.38
2022-10-11T11:41:38.850Z,11.98
2022-10-11T11:46:39.745Z,13.98
2022-10-11T11:51:42.461Z,10.77
2022-10-11T11:56:46.702Z,6.45
2022-10-11T12:01:50.690Z,12.60
2022-10-11T12:13:35.448Z,12.63
2022-10-11T12:36:50.405Z,9.60
2022-10-11T12:42:19.997Z,12.35
2022-10-11T12:47:26.056Z,15.23
2022-10-11T12:52:27.038Z,16.42
2022-10-11T12:57:47.164Z,15.73
2022-10-11T13:02:47.513Z,11.93
2022-10-11T13:07:46.617Z,8.07
2022-10-11T13:12:47.783Z,12.90
2022-10-11T13:17:48.768Z,8.63
2022-10-11T13:22:48.368Z,13.43
2022-10-11T13:27:46.880Z,12.60
2022-10-11T13:32:45.514Z,14.00
2022-10-11T13:37:47.558Z,12.77
2022-10-11T13:42:46.262Z,11.23
2022-10-11T13:47:44.673Z,9.88
2022-10-11T13:52:52.294Z,12.48
2022-10-11T13:57:51.988Z,11.20
2022-10-11T14:02:51.842Z,15.55
2022-10-11T14:07:51.444Z,11.15
2022-10-11T14:12:58.956Z,14.98
2022-10-11T14:17:57.125Z,16.38
2022-10-11T14:22:56.751Z,14.32
2022-10-11T14:27:55.475Z,14.15
2022-10-11T14:32:54.891Z,26.58
2022-10-11T14:38:00.205Z,27.83
2022-10-11T14:42:58.399Z,24.17
2022-10-11T14:47:57.188Z,17.83
2022-10-11T14:52:55.649Z,19.50
2022-10-11T14:57:56.322Z,20.70
2022-10-11T15:02:55.106Z,16.73
2022-10-11T15:07:53.413Z,19.83
2022-10-11T15:12:52.624Z,17.88
2022-10-11T15:17:53.311Z,16.95
2022-10-11T15:22:51.743Z,21.02
2022-10-11T15:27:50.123Z,14.75
2022-10-11T15:32:48.828Z,13.20
2022-10-11T15:37:48.536Z,23.05
2022-10-11T15:42:46.749Z,17.17
2022-10-11T15:47:45.217Z,20.25
2022-10-11T15:52:43.404Z,23.55
2022-10-11T15:57:42.962Z,26.30
2022-10-11T16:02:41.137Z,18.05
2022-10-11T16:07:39.368Z,16.13
2022-10-11T16:12:37.622Z,20.17
2022-10-11T16:17:37.430Z,13.85
2022-10-11T16:22:36.023Z,21.63
2022-10-11T16:27:34.412Z,19.83
2022-10-11T16:32:33.229Z,14.65
2022-10-11T16:37:33.389Z,15.10
2022-10-11T16:42:31.669Z,21.65
2022-10-11T16:47:29.836Z,20.65
2022-10-11T16:52:28.037Z,23.25
2022-10-11T16:57:27.667Z,26.38
2022-10-11T17:02:32.132Z,33.72
2022-10-11T17:07:38.784Z,21.35
2022-10-11T17:12:38.794Z,21.77
2022-10-11T17:17:36.956Z,18.60
2022-10-11T17:22:35.167Z,25.92
2022-10-11T17:27:33.391Z,72.95
2022-10-11T17:32:32.985Z,49.85
2022-10-11T17:37:31.213Z,37.75
2022-10-11T17:42:30.134Z,28.90
2022-10-11T17:47:28.524Z,32.13
2022-10-11T17:52:28.127Z,21.90
2022-10-11T17:57:26.746Z,30.17
2022-10-11T18:02:25.334Z,32.97
2022-10-11T18:07:24.428Z,101.85
2022-10-11T18:12:24.169Z,56.75
2022-10-11T18:17:22.657Z,26.35
2022-10-11T18:22:21.584Z,25.90
2022-10-11T18:27:20.126Z,18.55
2022-10-11T18:32:21.076Z,22.52
2022-10-11T18:37:20.461Z,23.77
2022-10-11T18:42:20.381Z,23.85
2022-10-11T18:47:25.998Z,20.58
2022-10-11T18:52:26.490Z,27.83
2022-10-11T18:57:25.874Z,21.52
2022-10-11T19:02:28.088Z,22.17
2022-10-11T19:07:26.793Z,26.02
2022-10-11T19:12:25.077Z,42.25
2022-10-11T19:17:27.709Z,37.75
2022-10-11T19:22:25.896Z,31.15
2022-10-11T19:27:26.731Z,31.38
2022-10-11T19:32:25.038Z,37.63
2022-10-11T19:37:26.530Z,28.15
2022-10-11T19:42:24.772Z,20.20
2022-10-11T19:47:25.538Z,12.25
2022-10-11T19:52:25.293Z,11.27
2022-10-11T19:57:23.649Z,10.45
2022-10-11T20:02:21.896Z,7.38
2022-10-11T20:07:20.747Z,7.85
2022-10-11T20:12:20.427Z,7.32
2022-10-11T20:17:18.686Z,6.10
2022-10-11T20:22:17.065Z,5.40
2022-10-11T20:27:15.271Z,6.43
2022-10-11T20:32:15.212Z,4.30
2022-10-11T20:37:15.416Z,6.82
2022-10-11T20:42:13.744Z,8.57
2022-10-11T20:47:12.026Z,5.45
2022-10-11T20:52:11.644Z,7.68
2022-10-11T20:57:10.072Z,6.43
2022-10-11T21:02:08.592Z,8.57
2022-10-11T21:07:07.072Z,7.45
2022-10-11T21:12:07.351Z,8.32
2022-10-11T21:17:05.566Z,6.80
2022-10-11T21:22:03.841Z,4.97
2022-10-11T21:27:02.051Z,5.05
2022-10-11T21:32:01.612Z,3.33
2022-10-11T21:37:00.652Z,8.05
2022-10-11T21:41:58.809Z,9.93
2022-10-11T21:47:12.275Z,4.75
2022-10-11T21:52:11.836Z,5.45
2022-10-11T21:57:10.021Z,4.43
2022-10-11T22:02:08.359Z,9.18
2022-10-11T22:07:06.617Z,7.40
2022-10-11T22:12:06.519Z,4.00
2022-10-11T22:17:04.677Z,5.60
2022-10-11T22:22:02.849Z,5.50
2022-10-11T22:27:01.028Z,6.05
2022-10-11T22:32:00.648Z,5.15
2022-10-11T22:36:58.869Z,4.35
2022-10-11T22:41:57.026Z,4.95
2022-10-11T22:46:55.600Z,3.40
2022-10-11T22:51:55.119Z,4.38
2022-10-11T22:56:53.401Z,6.10
2022-10-11T23:01:51.593Z,5.47
2022-10-11T23:06:49.722Z,5.82
2022-10-11T23:11:49.259Z,5.85
2022-10-11T23:16:47.515Z,6.90
2022-10-11T23:21:45.725Z,4.40
2022-10-11T23:26:43.913Z,5.70
2022-10-11T23:31:43.437Z,5.63
2022-10-11T23:36:41.600Z,4.10
2022-10-11T23:41:40.033Z,4.15
2022-10-11T23:46:41.142Z,4.50
2022-10-11T23:51:41.017Z,5.35
2022-10-11T23:56:39.264Z,4.53
